Palma de Mallorca, Spain
Current Conditions -  °F | °C
As of 9:30 PM on Thursday 27 Nov 2014 (Local Time) from LEPA Reporting Station
Few Clouds Few Clouds  
Wind Chill: 63°   Ceiling: Unl
Heat Index: 63°   Visibility: 6mi
Dew Point: 63°   Wind: 8mph
Humidity: 100%   Direction: 110°ESE
Pressure: 29.56"   Gusts: NA
Location:  39.57°N, 2.65°E
Report Text: LEPA 272030Z 11007KT 070V150 9999 FEW020 17/17 Q1001 NOSIG
Loading
Personal Weather Stations






























Interactive Weather Map New forecast layout! Learn more

10-Day Weather Forecast

Advertisements
Track Severe Weather on mobile